METAR Data
IDs: Format: Raw Decoded Include TAF

Data at: 1737 UTC 21 Sep 2018

KCOT 211653Z AUTO 17009G14KT 10SM BKN031 30/24 A2992 RMK AO2 SLP125 T03000239
KCOT 211630Z AUTO 16011KT 10SM BKN030 29/24 A2993 RMK AO2 T02940239
KCOT 211615Z AUTO 15012G17KT 10SM BKN029 30/24 A2993 RMK AO2 T03000239
KCOT 211553Z AUTO 16011G18KT 10SM SCT023 BKN030 29/24 A2993 RMK AO2 SLP127 T02940239
KCOT 211529Z AUTO 15010G16KT 10SM SCT021 28/24 A2993 RMK AO2 T02830244
KCOT 211453Z AUTO 15010G17KT 10SM BKN017 28/24 A2991 RMK AO2 SLP122 T02780244 51012
KCOT 211442Z AUTO 15014KT 10SM SCT017 27/24 A2991 RMK AO2 T02720244
KCOT 211415Z AUTO 15009KT 10SM BKN015 26/24 A2992 RMK AO2 T02610244
KCOT 211353Z AUTO 15007KT 10SM OVC013 26/25 A2991 RMK AO2 SLP121 T02560250
KCOT 211309Z AUTO 14008KT 10SM BKN014 25/24 A2990 RMK AO2 T02500244
KCOT 211253Z AUTO 13009KT 10SM FEW015 25/24 A2989 RMK AO2 SLP112 T02500244
KCOT 211153Z AUTO 13009KT 10SM FEW015 24/24 A2988 RMK AO2 SLP110 T02440244 10261 20244 53001
KCOT 211053Z AUTO 14010KT 10SM CLR 25/24 A2987 RMK AO2 SLP105 T02500244
KCOT 211012Z AUTO 14008KT 10SM SCT014 25/24 A2987 RMK AO2 T02500244
KCOT 210953Z AUTO 14010KT 10SM BKN014 25/24 A2987 RMK AO2 SLP105 T02500244
KCOT 210853Z AUTO 15010KT 10SM BKN015 26/24 A2988 RMK AO2 SLP109 T02560244 56007
KCOT 210801Z AUTO 15011KT 10SM BKN016 26/24 A2988 RMK AO2 T02560244
KCOT 210753Z AUTO 15011KT 10SM SCT016 26/24 A2988 RMK AO2 SLP109 T02560244
KCOT 210653Z AUTO 14010KT 10SM CLR 26/25 A2989 RMK AO2 SLP113 T02560250
KCOT 210553Z AUTO 14010KT 10SM CLR 26/25 A2990 RMK AO2 SLP116 T02610250 10289 20256 403060244 51006
KCOT 210453Z AUTO 13010KT 10SM CLR 26/25 A2990 RMK AO2 SLP116 T02610250
KCOT 210353Z AUTO 13008KT 10SM CLR 26/24 A2989 RMK AO2 SLP115 T02610244
KCOT 210253Z AUTO 14011KT 10SM CLR 27/24 A2988 RMK AO2 SLP111 T02670244 53014
KCOT 210153Z AUTO 13010KT 10SM FEW050 SCT065 27/24 A2986 RMK AO2 SLP104 T02720244
KCOT 210053Z AUTO 11005KT 10SM SCT050 BKN060 28/24 A2985 RMK AO2 SLP098 T02780239
KCOT 202353Z AUTO 13007KT 10SM CLR 29/24 A2984 RMK AO2 RAE2256 SLP096 P0000 60000 T02890239 10306 20278 56006
KCOT 202253Z AUTO 15003KT 10SM -RA FEW045 29/24 A2984 RMK AO2 RAB41 SLP097 P0000 T02890239
KCOT 202153Z AUTO 16008KT 10SM FEW036 29/23 A2984 RMK AO2 RAB26E38 SLP096 P0000 T02940233
KCOT 202053Z AUTO 16010KT 10SM CLR 31/23 A2986 RMK AO2 SLP102 T03060233 56027
KCOT 201953Z AUTO 17010G16KT 10SM SCT030 29/23 A2988 RMK AO2 SLP110 T02890233
KCOT 201853Z AUTO 16008KT 10SM FEW022 SCT028 29/24 A2990 RMK AO2 SLP118 T02890239
KCOT 201753Z AUTO 18007KT 10SM FEW018 FEW024 SCT031 28/24 A2994 RMK AO2 RAE26 SLP130 P0000 60000 T02780239 10283 20244 50001
KCOT 201653Z AUTO 17006KT 10SM -RA FEW024 BKN095 BKN120 27/24 A2996 RMK AO2 RAB44 SLP136 P0000 T02720244
KCOT 201553Z AUTO 16008KT 10SM FEW017 SCT024 BKN100 27/24 A2995 RMK AO2 SLP133 T02720244
KCOT 201522Z AUTO 17007KT 10SM SCT014 SCT019 BKN024 27/24 A2995 RMK AO2 T02720244
KCOT 201507Z AUTO 15009KT 10SM SCT011 BKN095 27/25 A2994 RMK AO2 T02670250
KCOT 201453Z AUTO 14009KT 10SM BKN010 BKN100 27/25 A2994 RMK AO2 CIG 008V012 SLP129 60000 T02670250 53011
KCOT 201446Z AUTO 16006G17KT 10SM BKN010 BKN100 26/25 A2993 RMK AO2 CIG 008V012 T02610250
KCOT 201430Z AUTO 15009KT 10SM FEW008 BKN100 26/25 A2993 RMK AO2 T02610250
KCOT 201353Z AUTO 13006KT 10SM OVC100 25/25 A2992 RMK AO2 RAB36E48 SLP125 P0000 T02500250
KCOT 201253Z AUTO 12006KT 10SM BKN120 24/24 A2991 RMK AO2 SLP119 T02440244
KCOT 201153Z AUTO 13006KT 10SM OVC110 25/24 A2990 RMK AO2 SLP118 T02500244 10256 20250 55002
KCOT 201053Z AUTO 15006KT 10SM SCT120 25/24 A2990 RMK AO2 SLP116 T02500244
KCOT 200953Z AUTO 16006KT 10SM CLR 25/24 A2990 RMK AO2 SLP118 T02500244
KCOT 200853Z AUTO 16007KT 10SM FEW013 25/24 A2991 RMK AO2 SLP120 T02500244 58004
KCOT 200753Z AUTO 15005KT 10SM FEW013 25/24 A2992 RMK AO2 SLP124 T02500244
KCOT 200653Z AUTO 15007KT 10SM FEW080 26/24 A2992 RMK AO2 SLP125 T02560244
KCOT 200553Z AUTO 13007KT 10SM CLR 26/24 A2992 RMK AO2 SLP125 T02560244 10289 20256 403280228 50005